Time;durP1;ratioP1;P1;durP2;ratioP2;P2;SDS_P1;SDS_P2;PMS_P1;PMS_P2;Temp;Humidity;BMP_temperature;BMP_pressure;BME280_temperature;BME280_humidity;BME280_pressure;Samples;Min_cycle;Max_cycle;Signal;HPM_P1;HPM_P2
2023/02/02 00:00:42;;;;;;;0.22;0.10;;;25.50;58.30;;;;;;4960517;28;20195;-51
2023/02/02 00:03:13;;;;;;;0.20;0.20;;;25.60;58.20;;;;;;4973841;28;20222;-53
2023/02/02 00:05:48;;;;;;;0.47;0.20;;;25.60;58.20;;;;;;4974928;28;20556;-50
2023/02/02 00:08:20;;;;;;;0.30;0.13;;;25.60;58.10;;;;;;4974400;28;20228;-52
2023/02/02 00:10:51;;;;;;;0.88;0.30;;;25.70;58.10;;;;;;4974269;28;20548;-52
2023/02/02 00:13:23;;;;;;;1.45;0.47;;;25.80;58.10;;;;;;4974977;28;20646;-52
2023/02/02 00:15:55;;;;;;;0.63;0.32;;;25.80;58.10;;;;;;4974360;28;20198;-51
2023/02/02 00:18:26;;;;;;;0.93;0.30;;;25.80;58.00;;;;;;4973390;28;20222;-49
2023/02/02 00:20:57;;;;;;;0.30;0.30;;;25.90;58.10;;;;;;4973453;28;20237;-51
2023/02/02 00:23:27;;;;;;;0.60;0.30;;;25.90;58.00;;;;;;4973538;28;20433;-49
2023/02/02 00:25:58;;;;;;;0.68;0.40;;;25.90;58.00;;;;;;4973341;28;20201;-51
2023/02/02 00:28:30;;;;;;;0.65;0.30;;;25.90;57.90;;;;;;4974133;28;20226;-52
2023/02/02 00:31:01;;;;;;;0.40;0.20;;;26.00;57.90;;;;;;4978620;28;20190;-52
2023/02/02 00:33:32;;;;;;;0.50;0.40;;;26.00;57.80;;;;;;4992553;28;20437;-52
2023/02/02 00:36:02;;;;;;;1.17;0.35;;;26.10;57.90;;;;;;4993310;28;20646;-52
2023/02/02 00:38:33;;;;;;;0.60;0.40;;;26.10;57.80;;;;;;4982793;28;20222;-52
2023/02/02 00:41:04;;;;;;;1.75;0.50;;;26.10;57.80;;;;;;4973951;28;20195;-52
2023/02/02 00:43:37;;;;;;;0.95;0.32;;;26.10;57.80;;;;;;4973384;28;20230;-51
2023/02/02 00:46:06;;;;;;;1.30;0.50;;;26.20;57.80;;;;;;4974386;28;20670;-52
2023/02/02 00:48:37;;;;;;;0.82;0.40;;;26.20;57.80;;;;;;4973336;28;20239;-53
2023/02/02 00:51:07;;;;;;;0.60;0.30;;;26.20;57.90;;;;;;4974388;28;20651;-50
2023/02/02 00:53:38;;;;;;;0.65;0.40;;;26.30;58.10;;;;;;4972838;28;20214;-52
2023/02/02 00:56:09;;;;;;;0.80;0.40;;;26.30;58.20;;;;;;4974361;28;20209;-51
2023/02/02 00:58:41;;;;;;;0.60;0.22;;;26.30;58.20;;;;;;4973710;28;20222;-49
2023/02/02 01:01:19;;;;;;;1.00;0.30;;;26.40;58.30;;;;;;4973394;28;20206;-51
2023/02/02 01:03:50;;;;;;;1.02;0.30;;;26.40;58.20;;;;;;4973914;28;20755;-49
2023/02/02 01:06:21;;;;;;;0.40;0.32;;;26.50;58.20;;;;;;4973558;28;20203;-48
2023/02/02 01:08:52;;;;;;;0.93;0.47;;;26.50;58.10;;;;;;4972921;28;20229;-54
2023/02/02 01:11:24;;;;;;;0.30;0.30;;;26.50;58.00;;;;;;4972268;28;20556;-51
2023/02/02 01:13:56;;;;;;;0.75;0.40;;;26.50;57.90;;;;;;4973001;28;20559;-51
2023/02/02 01:16:27;;;;;;;1.55;0.30;;;26.60;58.00;;;;;;4972696;28;20207;-49
2023/02/02 01:18:58;;;;;;;0.32;0.30;;;26.60;58.00;;;;;;4972760;28;20221;-50
2023/02/02 01:21:29;;;;;;;1.25;0.40;;;26.60;58.10;;;;;;4983107;28;20561;-50
2023/02/02 01:23:59;;;;;;;1.00;0.60;;;26.70;58.00;;;;;;4992402;28;20229;-51
2023/02/02 01:26:30;;;;;;;0.73;0.40;;;26.70;57.90;;;;;;4992081;28;20198;-52
2023/02/02 01:29:03;;;;;;;0.57;0.30;;;26.70;57.70;;;;;;4992154;28;20217;-51
2023/02/02 01:31:33;;;;;;;0.75;0.40;;;26.70;57.60;;;;;;4992352;28;20197;-54
2023/02/02 01:34:04;;;;;;;0.52;0.30;;;26.70;57.40;;;;;;4992402;28;20202;-52
2023/02/02 01:36:35;;;;;;;0.30;0.30;;;26.80;57.30;;;;;;4992835;28;20541;-50
2023/02/02 01:39:05;;;;;;;1.83;0.57;;;26.70;57.10;;;;;;4977009;28;20241;-52
2023/02/02 01:41:36;;;;;;;0.52;0.30;;;26.80;57.20;;;;;;4972903;28;20573;-53
2023/02/02 01:44:24;;;;;;;1.02;0.40;;;26.80;57.20;;;;;;4972620;28;20217;-49
2023/02/02 01:46:54;;;;;;;1.20;0.40;;;26.80;57.10;;;;;;4972028;28;20647;-49
2023/02/02 01:49:25;;;;;;;0.47;0.32;;;26.80;57.00;;;;;;4971513;28;20206;-51
2023/02/02 01:51:59;;;;;;;0.60;0.40;;;26.80;56.90;;;;;;4972961;28;20662;-51
2023/02/02 01:54:34;;;;;;;0.25;0.20;;;26.80;56.80;;;;;;4972785;28;20202;-49
2023/02/02 01:57:11;;;;;;;0.63;0.40;;;26.80;56.60;;;;;;4972317;28;20194;-51
2023/02/02 01:59:47;;;;;;;0.65;0.40;;;26.80;56.60;;;;;;4971529;28;20210;-51
2023/02/02 02:02:18;;;;;;;1.48;0.70;;;26.80;56.50;;;;;;4972726;28;20586;-53
2023/02/02 02:04:51;;;;;;;0.73;0.28;;;26.80;56.30;;;;;;4972805;28;20230;-52
2023/02/02 02:07:22;;;;;;;1.15;0.30;;;26.80;56.00;;;;;;4968702;28;20194;-51
2023/02/02 02:09:53;;;;;;;0.68;0.30;;;26.80;55.90;;;;;;4972695;28;20202;-51
2023/02/02 02:12:23;;;;;;;0.63;0.45;;;26.80;55.90;;;;;;4971850;28;20194;-52
2023/02/02 02:18:01;;;;;;;2.15;0.40;;;26.80;55.60;;;;;;4972144;28;20725;-52
2023/02/02 02:28:06;;;;;;;0.30;0.30;;;26.80;55.80;;;;;;4972624;28;20205;-51
2023/02/02 02:30:55;;;;;;;0.57;0.30;;;26.80;55.80;;;;;;4971648;28;20193;-50
2023/02/02 02:33:30;;;;;;;2.08;0.40;;;26.80;55.80;;;;;;4971736;28;20193;-49
2023/02/02 02:36:08;;;;;;;0.57;0.40;;;26.80;55.80;;;;;;4971642;28;20201;-50
2023/02/02 02:38:43;;;;;;;0.68;0.57;;;26.80;55.70;;;;;;4972390;28;20331;-48
2023/02/02 02:41:20;;;;;;;1.13;0.52;;;26.80;55.60;;;;;;4971346;28;20781;-51
2023/02/02 02:43:56;;;;;;;0.50;0.50;;;26.80;55.40;;;;;;4972109;28;20256;-53
2023/02/02 02:46:28;;;;;;;1.10;0.40;;;26.80;55.30;;;;;;4971928;28;20650;-49
2023/02/02 02:49:03;;;;;;;0.90;0.50;;;26.80;55.30;;;;;;4972040;28;20221;-48
2023/02/02 02:51:54;;;;;;;1.05;0.50;;;26.80;55.80;;;;;;4972040;28;20200;-48
2023/02/02 02:54:30;;;;;;;0.63;0.40;;;26.80;55.10;;;;;;4971163;28;20199;-50
2023/02/02 02:57:13;;;;;;;1.40;0.70;;;26.90;55.00;;;;;;4971078;28;20198;-50
2023/02/02 02:59:54;;;;;;;0.93;0.40;;;26.90;55.10;;;;;;4972046;28;20697;-50
2023/02/02 03:02:36;;;;;;;1.02;0.40;;;26.80;55.10;;;;;;4971839;28;20605;-51
2023/02/02 03:05:19;;;;;;;1.10;0.45;;;26.90;55.10;;;;;;4971599;28;20225;-50
2023/02/02 03:07:56;;;;;;;0.30;0.30;;;26.80;55.10;;;;;;4980857;28;20218;-51
2023/02/02 03:10:29;;;;;;;0.50;0.45;;;26.80;55.10;;;;;;4972357;28;20224;-48
2023/02/02 03:13:00;;;;;;;1.15;0.40;;;26.90;55.20;;;;;;4970538;28;20203;-51
2023/02/02 03:15:31;;;;;;;0.98;0.40;;;26.90;55.20;;;;;;4972057;28;20206;-48
2023/02/02 03:18:02;;;;;;;2.58;0.50;;;26.90;55.20;;;;;;4971186;28;20213;-48
2023/02/02 03:20:34;;;;;;;1.95;0.52;;;26.90;55.10;;;;;;4971225;28;20198;-50
2023/02/02 03:23:05;;;;;;;0.63;0.40;;;26.90;55.00;;;;;;4972502;28;20197;-49
2023/02/02 03:25:36;;;;;;;0.60;0.40;;;26.90;54.90;;;;;;4974487;28;20229;-50
2023/02/02 03:28:07;;;;;;;0.90;0.57;;;26.90;54.80;;;;;;4975464;28;20293;-50
2023/02/02 03:30:39;;;;;;;1.30;0.50;;;26.90;54.80;;;;;;4974862;28;20194;-52
2023/02/02 03:33:12;;;;;;;1.90;0.70;;;26.90;54.80;;;;;;4975160;28;20203;-50
2023/02/02 03:35:45;;;;;;;2.05;0.50;;;27.00;54.80;;;;;;4975088;28;20198;-49
2023/02/02 03:38:15;;;;;;;3.35;0.85;;;26.90;54.70;;;;;;4975009;28;20218;-52
2023/02/02 03:40:46;;;;;;;1.65;0.50;;;27.00;54.80;;;;;;4975284;28;20210;-51
2023/02/02 03:43:21;;;;;;;1.15;0.50;;;27.00;54.90;;;;;;4975191;28;20449;-52
2023/02/02 03:45:58;;;;;;;1.08;0.60;;;27.00;54.80;;;;;;4974249;28;20689;-52
2023/02/02 03:48:29;;;;;;;2.22;0.70;;;27.00;54.80;;;;;;4974402;28;20214;-51
2023/02/02 03:51:02;;;;;;;2.50;0.50;;;27.00;54.70;;;;;;4974366;28;20194;-51
2023/02/02 03:53:33;;;;;;;1.65;0.52;;;27.00;54.80;;;;;;4974010;28;20210;-52
2023/02/02 03:56:03;;;;;;;0.93;0.50;;;27.00;55.00;;;;;;4974262;28;20198;-51
2023/02/02 03:58:34;;;;;;;3.53;0.80;;;27.00;55.00;;;;;;4973934;28;20218;-52
2023/02/02 04:01:06;;;;;;;7.55;5.90;;;27.00;54.90;;;;;;4975225;28;20551;-52
2023/02/02 04:03:37;;;;;;;14.88;13.00;;;27.00;55.00;;;;;;4973781;28;20659;-52
2023/02/02 04:06:09;;;;;;;33.17;29.67;;;27.00;55.00;;;;;;4975085;28;20574;-53
2023/02/02 04:08:40;;;;;;;38.28;34.10;;;27.00;54.80;;;;;;4973910;28;20605;-54
2023/02/02 04:11:12;;;;;;;44.10;39.45;;;27.00;54.80;;;;;;4975081;28;20209;-52
2023/02/02 04:13:43;;;;;;;45.72;41.08;;;27.00;54.80;;;;;;4974511;28;20194;-53
2023/02/02 04:16:15;;;;;;;50.08;45.13;;;27.10;54.80;;;;;;4973921;28;20233;-54
2023/02/02 04:18:45;;;;;;;55.25;49.63;;;27.00;54.80;;;;;;4974733;28;20268;-52
2023/02/02 04:21:18;;;;;;;53.05;47.80;;;27.10;54.90;;;;;;4973941;28;20253;-50
2023/02/02 04:23:48;;;;;;;52.78;47.10;;;27.10;54.80;;;;;;4974018;28;20194;-51
2023/02/02 04:26:19;;;;;;;44.63;40.25;;;27.10;54.90;;;;;;4973948;28;20202;-53
2023/02/02 04:28:50;;;;;;;30.92;27.60;;;27.10;54.80;;;;;;4974669;28;20215;-53
2023/02/02 04:31:20;;;;;;;25.73;23.15;;;27.10;54.20;;;;;;4973385;28;20206;-53
2023/02/02 04:33:51;;;;;;;25.90;23.10;;;27.10;53.90;;;;;;4973178;28;20194;-53
2023/02/02 04:36:24;;;;;;;27.55;24.65;;;27.10;53.90;;;;;;4974097;28;20202;-52
2023/02/02 04:38:56;;;;;;;28.08;25.27;;;27.10;54.00;;;;;;4973586;28;20242;-49
2023/02/02 04:41:27;;;;;;;26.70;24.00;;;27.10;54.00;;;;;;4975865;28;20567;-52
2023/02/02 04:43:57;;;;;;;26.75;23.92;;;27.10;53.90;;;;;;4993139;28;20206;-53
2023/02/02 04:46:28;;;;;;;26.77;23.98;;;27.10;53.90;;;;;;4993470;28;20198;-51
2023/02/02 04:48:59;;;;;;;29.35;24.65;;;27.10;53.90;;;;;;4993060;28;20232;-54
2023/02/02 04:51:31;;;;;;;26.13;23.63;;;27.10;53.90;;;;;;4993104;28;20654;-51
2023/02/02 04:54:02;;;;;;;25.73;23.08;;;27.20;53.90;;;;;;4993071;28;20213;-52
2023/02/02 04:56:33;;;;;;;25.83;23.10;;;27.20;53.90;;;;;;4993111;28;20193;-52
2023/02/02 04:59:03;;;;;;;25.08;22.48;;;27.10;53.80;;;;;;4993439;28;20209;-52
2023/02/02 05:01:34;;;;;;;25.55;23.05;;;27.20;54.50;;;;;;4986771;28;20202;-53
2023/02/02 05:04:05;;;;;;;25.08;22.45;;;27.20;54.00;;;;;;4976172;28;20218;-53
2023/02/02 05:06:37;;;;;;;23.40;21.25;;;27.20;54.20;;;;;;4977131;28;20197;-51
2023/02/02 05:09:08;;;;;;;25.35;22.98;;;27.20;54.10;;;;;;4976942;28;20218;-50
2023/02/02 05:11:39;;;;;;;23.67;21.48;;;27.30;54.10;;;;;;4974221;28;20197;-54
2023/02/02 05:14:11;;;;;;;24.50;22.13;;;27.20;54.10;;;;;;4973038;28;20206;-51
2023/02/02 05:16:41;;;;;;;23.20;21.10;;;27.20;54.20;;;;;;4973623;28;20186;-54
2023/02/02 05:19:15;;;;;;;25.35;22.67;;;27.30;54.30;;;;;;4972563;28;20218;-52
2023/02/02 05:21:48;;;;;;;21.58;19.50;;;27.20;54.20;;;;;;4973297;28;20226;-52
2023/02/02 05:24:19;;;;;;;23.30;21.17;;;27.30;54.20;;;;;;4972592;28;20618;-51
2023/02/02 05:26:51;;;;;;;21.95;19.75;;;27.30;54.00;;;;;;4973126;28;20197;-53
2023/02/02 05:29:22;;;;;;;21.58;19.42;;;27.20;53.90;;;;;;4973413;28;20218;-52
2023/02/02 05:31:52;;;;;;;22.10;19.90;;;27.30;53.90;;;;;;4972759;28;20187;-53
2023/02/02 05:34:23;;;;;;;21.88;19.77;;;27.30;53.90;;;;;;4973439;28;20221;-52
2023/02/02 05:36:56;;;;;;;20.55;18.63;;;27.30;53.90;;;;;;4973755;28;20194;-52
2023/02/02 05:39:26;;;;;;;21.27;19.30;;;27.30;53.80;;;;;;4972800;28;20590;-52
2023/02/02 05:42:00;;;;;;;20.75;18.75;;;27.30;53.80;;;;;;4972560;28;20646;-52
2023/02/02 05:44:31;;;;;;;16.17;14.63;;;27.30;53.90;;;;;;4972763;28;20304;-51
2023/02/02 05:47:01;;;;;;;16.02;14.52;;;27.30;53.70;;;;;;4972495;28;20210;-52
2023/02/02 05:49:32;;;;;;;18.60;16.90;;;27.30;53.80;;;;;;4972230;28;20248;-49
2023/02/02 05:52:05;;;;;;;17.25;15.73;;;27.30;53.80;;;;;;4972505;28;20209;-51
2023/02/02 05:54:35;;;;;;;17.70;16.13;;;27.30;53.80;;;;;;4971474;28;20190;-50
2023/02/02 05:57:06;;;;;;;18.92;15.70;;;27.30;53.80;;;;;;4972624;28;20190;-54
2023/02/02 05:59:37;;;;;;;17.90;16.23;;;27.30;53.80;;;;;;4972460;28;20229;-54
2023/02/02 06:02:07;;;;;;;14.50;13.18;;;27.30;53.70;;;;;;4972401;28;20662;-50
2023/02/02 06:04:38;;;;;;;14.90;13.45;;;27.20;53.80;;;;;;4971489;28;20229;-50
2023/02/02 06:07:11;;;;;;;13.25;12.05;;;27.20;53.80;;;;;;4972401;28;20191;-52
2023/02/02 06:09:42;;;;;;;13.15;11.88;;;27.30;53.70;;;;;;4953177;28;20221;-52
2023/02/02 06:12:12;;;;;;;13.23;12.02;;;27.30;53.60;;;;;;4959407;28;20194;-52
2023/02/02 06:14:43;;;;;;;13.25;12.02;;;27.20;53.50;;;;;;4972474;28;20202;-53
2023/02/02 06:17:13;;;;;;;11.40;10.30;;;27.20;53.50;;;;;;4972121;28;20206;-52
2023/02/02 06:19:44;;;;;;;11.88;10.80;;;27.20;53.50;;;;;;4971911;28;20589;-50
2023/02/02 06:22:17;;;;;;;12.05;10.95;;;27.30;53.50;;;;;;4972169;28;20228;-49
2023/02/02 06:24:47;;;;;;;11.77;10.68;;;27.30;53.50;;;;;;4972504;28;20893;-49
2023/02/02 06:27:18;;;;;;;11.90;10.90;;;27.30;53.40;;;;;;4971937;28;20678;-53
2023/02/02 06:29:49;;;;;;;11.98;10.90;;;27.30;53.50;;;;;;4971736;28;20555;-50
2023/02/02 06:32:20;;;;;;;11.77;10.70;;;27.20;53.50;;;;;;4971659;28;20190;-50
2023/02/02 06:34:50;;;;;;;11.70;10.70;;;27.20;53.60;;;;;;4972469;28;20216;-52
2023/02/02 06:37:23;;;;;;;11.52;10.43;;;27.30;53.60;;;;;;4971450;28;20200;-51
2023/02/02 06:39:54;;;;;;;11.40;10.20;;;27.20;53.60;;;;;;4974301;28;20261;-53
2023/02/02 06:42:24;;;;;;;11.43;10.27;;;27.20;53.50;;;;;;4991791;28;20304;-50
2023/02/02 06:44:55;;;;;;;11.18;10.10;;;27.20;53.50;;;;;;4991646;28;20584;-51
2023/02/02 06:47:26;;;;;;;8.95;8.13;;;27.30;53.50;;;;;;4983739;28;20745;-54
2023/02/02 06:49:56;;;;;;;7.18;6.15;;;27.20;53.40;;;;;;4974634;28;20202;-54
2023/02/02 06:52:29;;;;;;;15.55;6.50;;;27.20;53.30;;;;;;4971713;28;20198;-51
2023/02/02 06:55:00;;;;;;;13.63;6.00;;;27.20;53.30;;;;;;4972022;28;20198;-53
2023/02/02 06:57:31;;;;;;;11.15;5.22;;;27.20;53.20;;;;;;4973274;28;20549;-54
2023/02/02 07:00:05;;;;;;;12.57;4.50;;;27.10;53.00;;;;;;4975407;28;20206;-53
2023/02/02 07:02:35;;;;;;;11.05;4.72;;;27.10;53.00;;;;;;4975258;28;20197;-51
2023/02/02 07:05:06;;;;;;;8.48;3.97;;;27.10;53.00;;;;;;4975376;28;20261;-53
2023/02/02 07:07:39;;;;;;;10.30;4.38;;;27.10;52.90;;;;;;4975065;28;20198;-54
2023/02/02 07:10:10;;;;;;;9.50;3.78;;;27.10;52.70;;;;;;4975862;28;20225;-52
2023/02/02 07:12:41;;;;;;;13.02;3.72;;;27.10;52.60;;;;;;4975537;28;20190;-54
2023/02/02 07:15:12;;;;;;;7.22;3.13;;;27.00;52.40;;;;;;4974963;28;20198;-54
2023/02/02 07:17:43;;;;;;;5.05;2.50;;;27.10;52.50;;;;;;4974718;28;20539;-53
2023/02/02 07:20:14;;;;;;;5.30;2.30;;;27.00;52.40;;;;;;4975077;28;20281;-54
2023/02/02 07:22:47;;;;;;;4.35;2.03;;;27.00;52.30;;;;;;4975243;28;20553;-54
2023/02/02 07:25:18;;;;;;;4.63;2.10;;;27.00;52.30;;;;;;4974875;28;20261;-54
2023/02/02 07:27:48;;;;;;;4.70;1.88;;;27.00;52.40;;;;;;4975454;28;20217;-52
2023/02/02 07:30:19;;;;;;;5.28;2.00;;;27.00;52.40;;;;;;4974547;28;20203;-54
2023/02/02 07:32:51;;;;;;;5.70;1.65;;;27.00;52.70;;;;;;4974694;28;20198;-52
2023/02/02 07:35:21;;;;;;;3.00;1.30;;;26.90;52.50;;;;;;4975232;28;20221;-51
2023/02/02 07:37:57;;;;;;;3.08;1.30;;;27.00;52.50;;;;;;4974479;28;20210;-53
2023/02/02 07:40:30;;;;;;;6.25;1.40;;;27.00;52.50;;;;;;4975018;28;20190;-54
2023/02/02 07:43:01;;;;;;;3.03;1.42;;;27.00;52.50;;;;;;4974665;28;20198;-52
2023/02/02 07:45:32;;;;;;;3.00;1.50;;;26.90;52.50;;;;;;4974567;28;20253;-53
2023/02/02 07:48:03;;;;;;;3.42;1.02;;;26.90;52.40;;;;;;4975277;28;20218;-53
2023/02/02 07:50:34;;;;;;;5.45;1.10;;;26.90;52.40;;;;;;4974344;28;20563;-54
2023/02/02 07:53:07;;;;;;;4.13;1.00;;;26.90;52.30;;;;;;4975208;28;20210;-50
2023/02/02 07:55:37;;;;;;;2.40;1.10;;;26.90;52.40;;;;;;4974973;28;20205;-54
2023/02/02 07:58:09;;;;;;;3.30;1.00;;;26.90;52.40;;;;;;4973238;28;20218;-53
2023/02/02 08:00:39;;;;;;;2.38;1.00;;;26.80;52.30;;;;;;4974919;28;20198;-54
2023/02/02 08:03:12;;;;;;;1.77;1.00;;;26.80;52.50;;;;;;4974148;28;20198;-51
2023/02/02 08:05:43;;;;;;;1.35;1.00;;;26.80;52.50;;;;;;4975017;28;20226;-53
2023/02/02 08:08:15;;;;;;;4.53;1.20;;;26.80;52.60;;;;;;4973323;28;20219;-52
2023/02/02 08:10:50;;;;;;;2.08;1.10;;;26.80;52.70;;;;;;4973282;28;20202;-54
2023/02/02 08:13:21;;;;;;;3.80;1.70;;;26.80;52.80;;;;;;4974502;28;20726;-54
2023/02/02 08:15:52;;;;;;;1.70;1.20;;;26.80;52.80;;;;;;4974064;28;20206;-51
2023/02/02 08:18:23;;;;;;;3.83;1.42;;;26.80;52.90;;;;;;4973872;28;20222;-53
2023/02/02 08:20:53;;;;;;;2.40;1.15;;;26.80;52.90;;;;;;4973712;28;20194;-51
2023/02/02 08:23:26;;;;;;;3.42;1.33;;;26.80;52.90;;;;;;4973580;28;20194;-53
2023/02/02 08:26:06;;;;;;;1.23;1.00;;;26.80;52.90;;;;;;4973256;28;20225;-54
2023/02/02 08:28:37;;;;;;;3.58;1.20;;;26.80;52.90;;;;;;4973876;28;20217;-52
2023/02/02 08:31:09;;;;;;;2.03;1.15;;;26.80;52.90;;;;;;4973489;28;20203;-53
2023/02/02 08:33:40;;;;;;;2.40;1.63;;;26.80;52.90;;;;;;4974213;28;20208;-51
2023/02/02 08:36:13;;;;;;;1.88;1.20;;;26.70;52.80;;;;;;4973493;28;20194;-55
2023/02/02 08:38:46;;;;;;;4.20;1.20;;;26.80;52.90;;;;;;4972630;28;20317;-53
2023/02/02 08:41:18;;;;;;;2.20;1.40;;;26.70;52.80;;;;;;4973356;28;20206;-53
2023/02/02 08:43:49;;;;;;;2.45;1.23;;;26.70;52.80;;;;;;4973470;28;20221;-53
2023/02/02 08:46:21;;;;;;;2.20;1.27;;;26.70;52.80;;;;;;4974471;28;20230;-51
2023/02/02 08:48:52;;;;;;;2.33;1.20;;;26.70;52.90;;;;;;4974080;28;20214;-54
2023/02/02 08:51:23;;;;;;;1.35;1.13;;;26.70;53.00;;;;;;4974213;28;20194;-53
2023/02/02 08:53:55;;;;;;;2.13;1.13;;;26.70;53.00;;;;;;4973769;28;20202;-52
2023/02/02 08:56:26;;;;;;;1.77;1.23;;;26.70;53.00;;;;;;4973994;28;20201;-49
2023/02/02 08:58:59;;;;;;;2.38;1.27;;;26.70;53.00;;;;;;4972754;28;20206;-54
2023/02/02 09:01:31;;;;;;;2.08;1.15;;;26.70;53.00;;;;;;4973771;28;20198;-55
2023/02/02 09:04:03;;;;;;;3.50;1.50;;;26.70;53.00;;;;;;4972537;28;20287;-54
2023/02/02 09:06:36;;;;;;;1.38;0.88;;;26.70;53.00;;;;;;4973603;28;20234;-52
2023/02/02 09:09:10;;;;;;;2.33;1.30;;;26.70;53.00;;;;;;4972639;28;20210;-53
2023/02/02 09:11:41;;;;;;;1.33;1.15;;;26.60;52.90;;;;;;4973185;28;20209;-53
2023/02/02 09:14:14;;;;;;;1.92;1.38;;;26.70;53.00;;;;;;4973299;28;20206;-53
2023/02/02 09:16:45;;;;;;;3.35;1.30;;;26.60;53.00;;;;;;4972089;28;20194;-54
2023/02/02 09:19:15;;;;;;;2.70;1.23;;;26.60;53.00;;;;;;4973032;28;20686;-53
2023/02/02 09:21:46;;;;;;;1.58;1.30;;;26.60;53.00;;;;;;4972416;28;20249;-53
2023/02/02 09:24:19;;;;;;;2.17;1.10;;;26.60;53.00;;;;;;4972784;28;20669;-52
2023/02/02 09:26:49;;;;;;;1.88;1.20;;;26.60;53.00;;;;;;4972801;28;20222;-54
2023/02/02 09:29:20;;;;;;;1.30;1.08;;;26.60;53.10;;;;;;4972956;28;20210;-51
2023/02/02 09:31:51;;;;;;;1.70;1.00;;;26.60;53.10;;;;;;4973320;28;20197;-53
2023/02/02 09:34:21;;;;;;;1.55;0.90;;;26.60;53.10;;;;;;4972845;28;20217;-54
2023/02/02 09:36:53;;;;;;;2.58;1.15;;;26.50;53.00;;;;;;4971994;28;20194;-54
2023/02/02 09:39:25;;;;;;;1.23;0.85;;;26.50;53.10;;;;;;4972473;28;20305;-55
2023/02/02 09:42:19;;;;;;;1.10;1.00;;;26.50;53.10;;;;;;4971980;28;20194;-54
2023/02/02 09:45:03;;;;;;;1.90;0.93;;;26.50;53.10;;;;;;4972911;28;20249;-52
2023/02/02 09:47:53;;;;;;;2.03;1.00;;;26.50;53.10;;;;;;4973222;28;20256;-55
2023/02/02 09:50:37;;;;;;;1.27;0.90;;;26.50;53.00;;;;;;4972465;28;20610;-54
2023/02/02 09:53:14;;;;;;;2.58;1.10;;;26.50;53.00;;;;;;4972524;28;20210;-54
2023/02/02 09:55:49;;;;;;;0.80;0.80;;;26.50;53.10;;;;;;4972095;28;20212;-54
2023/02/02 09:58:24;;;;;;;0.88;0.80;;;26.50;53.10;;;;;;4972895;28;20230;-54
2023/02/02 10:01:00;;;;;;;1.30;0.88;;;26.50;53.10;;;;;;4972839;28;20194;-55
2023/02/02 10:03:39;;;;;;;1.50;1.10;;;26.50;53.10;;;;;;4972340;28;20197;-54
2023/02/02 10:06:21;;;;;;;1.35;1.00;;;26.50;53.10;;;;;;4972380;28;20222;-51
2023/02/02 10:08:57;;;;;;;1.63;1.02;;;26.40;53.10;;;;;;4977758;28;20217;-51
2023/02/02 10:11:37;;;;;;;1.23;0.90;;;26.50;53.10;;;;;;4978373;28;20657;-51
2023/02/02 10:14:13;;;;;;;1.17;0.70;;;26.40;53.10;;;;;;4978339;28;20197;-51
2023/02/02 10:16:45;;;;;;;0.90;0.80;;;26.40;53.00;;;;;;4986118;28;20196;-54
2023/02/02 10:19:16;;;;;;;1.48;0.77;;;26.40;53.10;;;;;;4985003;28;20702;-52
2023/02/02 10:21:53;;;;;;;0.88;0.85;;;26.40;53.10;;;;;;4980247;28;20649;-49
2023/02/02 10:24:26;;;;;;;1.13;0.80;;;26.40;53.10;;;;;;4979884;28;20189;-48
2023/02/02 10:27:03;;;;;;;1.52;0.80;;;26.40;53.10;;;;;;4977569;28;20222;-50
2023/02/02 10:29:40;;;;;;;1.55;1.00;;;26.40;53.10;;;;;;4980078;28;20323;-48
2023/02/02 10:32:21;;;;;;;1.48;0.93;;;26.40;53.10;;;;;;4979640;28;20202;-48
2023/02/02 10:35:07;;;;;;;0.85;0.85;;;26.40;53.10;;;;;;4979274;28;20236;-48
2023/02/02 10:37:41;;;;;;;0.98;0.88;;;26.40;53.00;;;;;;4977439;28;20202;-52
2023/02/02 10:40:28;;;;;;;1.27;0.80;;;26.30;53.00;;;;;;4979607;28;20186;-48
2023/02/02 10:46:05;;;;;;;1.40;0.98;;;26.40;53.10;;;;;;4981101;28;20259;-51
2023/02/02 10:48:38;;;;;;;1.17;0.90;;;26.30;53.00;;;;;;4977229;28;20225;-52
2023/02/02 10:51:19;;;;;;;2.45;1.00;;;26.30;53.10;;;;;;4980351;28;20194;-53
2023/02/02 10:53:54;;;;;;;2.10;1.10;;;26.30;53.10;;;;;;4980886;28;20202;-50
2023/02/02 10:56:28;;;;;;;2.30;1.10;;;26.30;53.10;;;;;;4979658;28;20193;-51
2023/02/02 10:59:08;;;;;;;1.98;1.20;;;26.30;53.10;;;;;;4971781;28;20225;-51
2023/02/02 11:01:38;;;;;;;1.25;1.00;;;26.30;53.10;;;;;;4972604;28;20209;-53
2023/02/02 11:06:59;;;;;;;1.30;1.00;;;26.30;53.10;;;;;;4972556;28;20233;-53
2023/02/02 11:09:33;;;;;;;1.77;1.08;;;26.30;53.10;;;;;;4972399;28;20254;-53
2023/02/02 11:12:12;;;;;;;2.80;1.10;;;26.30;53.00;;;;;;4972544;28;20206;-53
2023/02/02 11:14:48;;;;;;;3.05;1.30;;;26.30;53.10;;;;;;4971733;28;20250;-50
2023/02/02 11:17:23;;;;;;;1.98;1.33;;;26.20;53.00;;;;;;4972045;28;20206;-51
2023/02/02 11:19:54;;;;;;;2.22;0.90;;;26.20;53.00;;;;;;4972311;28;20576;-53
2023/02/02 11:22:33;;;;;;;2.10;1.20;;;26.20;53.00;;;;;;4972121;28;20198;-54
2023/02/02 11:25:06;;;;;;;2.35;1.13;;;26.20;53.00;;;;;;4972197;28;20365;-50
2023/02/02 11:27:41;;;;;;;1.70;1.27;;;26.20;53.10;;;;;;4971813;28;20226;-54
2023/02/02 11:30:27;;;;;;;1.63;1.05;;;26.20;53.10;;;;;;4971871;28;20201;-53
2023/02/02 11:32:59;;;;;;;1.83;1.15;;;26.20;53.20;;;;;;4971729;28;20646;-52
2023/02/02 11:35:31;;;;;;;3.40;1.45;;;26.20;53.10;;;;;;4971573;28;20345;-53
2023/02/02 11:38:10;;;;;;;3.55;1.50;;;26.20;53.10;;;;;;4970997;28;20698;-49
2023/02/02 11:40:43;;;;;;;1.15;1.00;;;26.20;53.20;;;;;;4971649;28;20205;-53
2023/02/02 11:43:20;;;;;;;2.80;1.40;;;26.20;53.20;;;;;;4971588;28;20203;-53
2023/02/02 11:46:02;;;;;;;2.38;1.20;;;26.20;53.10;;;;;;4975785;28;20650;-51
2023/02/02 11:48:42;;;;;;;2.50;1.10;;;26.20;53.10;;;;;;4974618;28;20228;-52
2023/02/02 11:51:25;;;;;;;2.47;1.30;;;26.20;53.10;;;;;;4974544;28;20233;-51
2023/02/02 11:54:06;;;;;;;1.30;1.02;;;26.10;53.00;;;;;;4975173;28;20206;-49
2023/02/02 11:56:39;;;;;;;1.98;1.10;;;26.10;53.10;;;;;;4974834;28;20261;-50
2023/02/02 11:59:31;;;;;;;2.53;1.20;;;26.20;53.10;;;;;;4974907;28;20218;-49
2023/02/02 12:02:33;;;;;;;2.65;1.27;;;26.10;53.10;;;;;;4956761;28;20230;-53
2023/02/02 12:05:32;;;;;;;2.22;1.15;;;26.10;53.10;;;;;;4955899;28;20194;-49
2023/02/02 12:08:03;;;;;;;2.45;1.38;;;26.10;53.20;;;;;;4961738;28;20245;-52
2023/02/02 12:10:40;;;;;;;2.13;1.20;;;26.10;53.20;;;;;;4974881;28;20289;-51
2023/02/02 12:13:16;;;;;;;2.40;1.15;;;26.10;53.30;;;;;;4975056;28;20201;-49
2023/02/02 12:15:53;;;;;;;2.10;1.20;;;26.00;53.20;;;;;;4975442;28;20193;-52
2023/02/02 12:18:41;;;;;;;2.20;1.10;;;26.00;53.20;;;;;;4974607;28;20242;-51
2023/02/02 12:21:18;;;;;;;2.97;1.40;;;26.00;53.30;;;;;;4974455;28;20198;-49
2023/02/02 12:24:04;;;;;;;1.70;1.13;;;26.00;53.20;;;;;;4975151;28;20198;-48
2023/02/02 12:26:36;;;;;;;1.45;1.02;;;26.00;53.30;;;;;;4974817;28;20241;-49
2023/02/02 12:29:22;;;;;;;1.95;1.10;;;26.00;53.20;;;;;;4974756;28;20225;-48
2023/02/02 12:32:12;;;;;;;2.28;1.42;;;26.00;53.20;;;;;;4974849;28;20198;-48
2023/02/02 12:34:56;;;;;;;2.30;1.40;;;26.00;53.20;;;;;;4972873;28;20257;-49
2023/02/02 12:37:37;;;;;;;2.58;1.40;;;26.00;53.20;;;;;;4974889;28;20198;-51
2023/02/02 12:40:28;;;;;;;2.20;1.17;;;26.00;53.20;;;;;;4974788;28;20659;-52
2023/02/02 12:43:10;;;;;;;1.90;1.23;;;25.90;53.10;;;;;;4972740;28;20285;-48
2023/02/02 12:46:25;;;;;;;2.92;1.48;;;25.90;53.20;;;;;;4974440;28;20198;-50
2023/02/02 12:49:29;;;;;;;1.83;1.10;;;25.90;53.20;;;;;;4933020;29;20231;-50
2023/02/02 12:52:17;;;;;;;2.17;1.10;;;25.90;53.20;;;;;;4973877;28;20214;-48
2023/02/02 12:55:18;;;;;;;1.38;1.10;;;25.90;53.20;;;;;;4973795;28;20199;-50
2023/02/02 12:57:56;;;;;;;1.70;1.10;;;25.90;53.30;;;;;;4974140;28;20229;-49
2023/02/02 13:00:51;;;;;;;1.63;1.00;;;25.90;53.30;;;;;;4974569;28;20197;-49
2023/02/02 13:03:36;;;;;;;2.13;1.08;;;25.90;53.40;;;;;;4974042;28;20202;-49
2023/02/02 13:06:29;;;;;;;1.60;1.10;;;25.80;53.30;;;;;;4974054;28;20197;-51
2023/02/02 13:09:08;;;;;;;1.65;0.93;;;25.80;53.30;;;;;;4973754;28;20237;-50
2023/02/02 13:11:44;;;;;;;1.45;1.00;;;25.80;53.30;;;;;;4973853;28;20202;-49
2023/02/02 13:14:18;;;;;;;1.73;1.10;;;25.80;53.30;;;;;;4973743;28;20209;-48
2023/02/02 13:16:52;;;;;;;1.77;1.20;;;25.80;53.30;;;;;;4973925;28;20223;-48
2023/02/02 13:19:30;;;;;;;1.60;1.00;;;25.80;53.30;;;;;;4973016;28;20214;-50
2023/02/02 13:22:03;;;;;;;3.45;1.55;;;25.80;53.30;;;;;;4973098;28;20226;-53
2023/02/02 13:24:40;;;;;;;1.00;0.90;;;25.80;53.30;;;;;;4973033;28;20205;-52
2023/02/02 13:27:15;;;;;;;1.92;1.13;;;25.80;53.30;;;;;;4973080;28;20225;-49
2023/02/02 13:29:50;;;;;;;1.80;0.90;;;25.80;53.30;;;;;;4972884;28;20686;-53
2023/02/02 13:32:28;;;;;;;1.70;1.20;;;25.80;53.40;;;;;;4973190;28;20193;-51
2023/02/02 13:35:03;;;;;;;1.70;1.13;;;25.80;53.40;;;;;;4973193;28;20198;-51